createdAt,value
2023-08-02T00:01:17.988Z,5.32
2023-08-02T00:04:09.165Z,5.38
2023-08-02T00:06:41.541Z,5.72
2023-08-02T00:09:10.238Z,5.50
2023-08-02T00:11:38.781Z,5.70
2023-08-02T00:14:10.139Z,5.07
2023-08-02T00:16:39.468Z,5.40
2023-08-02T00:19:22.000Z,5.05
2023-08-02T00:21:51.084Z,4.97
2023-08-02T00:24:19.640Z,5.07
2023-08-02T00:26:52.228Z,5.43
2023-08-02T00:29:21.950Z,5.28
2023-08-02T00:31:50.040Z,4.80
2023-08-02T00:34:22.404Z,4.90
2023-08-02T00:36:53.752Z,5.00
2023-08-02T00:39:24.788Z,5.10
2023-08-02T00:41:56.394Z,5.38
2023-08-02T00:44:24.643Z,5.10
2023-08-02T00:46:55.799Z,4.85
2023-08-02T00:49:25.758Z,4.70
2023-08-02T00:51:55.197Z,4.97
2023-08-02T00:54:27.448Z,4.93
2023-08-02T00:56:59.240Z,5.38
2023-08-02T00:59:30.973Z,5.85
2023-08-02T01:02:00.917Z,5.80
2023-08-02T01:04:32.378Z,5.88
2023-08-02T01:07:16.820Z,6.00
2023-08-02T01:09:53.044Z,6.20
2023-08-02T01:12:24.007Z,6.68
2023-08-02T01:15:03.206Z,6.37
2023-08-02T01:17:34.071Z,7.03
2023-08-02T01:20:09.943Z,6.85
2023-08-02T01:22:38.762Z,6.88
2023-08-02T01:25:08.243Z,6.65
2023-08-02T01:27:43.803Z,7.28
2023-08-02T01:30:18.152Z,6.57
2023-08-02T01:32:48.475Z,6.78
2023-08-02T01:35:20.513Z,7.82
2023-08-02T01:37:50.735Z,8.20
2023-08-02T01:40:19.642Z,8.35
2023-08-02T01:42:47.821Z,8.48
2023-08-02T01:45:17.319Z,9.00
2023-08-02T01:47:46.124Z,8.82
2023-08-02T01:50:14.485Z,8.55
2023-08-02T01:52:44.283Z,8.27
2023-08-02T01:55:22.818Z,8.63
2023-08-02T01:57:51.380Z,7.75
2023-08-02T02:00:20.370Z,7.22
2023-08-02T02:02:50.961Z,7.25
2023-08-02T02:05:19.980Z,7.70
2023-08-02T02:07:52.389Z,7.43
2023-08-02T02:10:25.406Z,6.88
2023-08-02T02:12:57.068Z,6.95
2023-08-02T02:15:26.702Z,6.75
2023-08-02T02:17:57.294Z,6.53
2023-08-02T02:20:26.529Z,5.90
2023-08-02T02:22:58.694Z,5.88
2023-08-02T02:25:27.089Z,6.57
2023-08-02T02:27:55.624Z,5.95
2023-08-02T02:30:24.406Z,5.90
2023-08-02T02:32:57.008Z,6.00
2023-08-02T02:35:28.825Z,5.78
2023-08-02T02:37:58.947Z,5.75
2023-08-02T02:40:28.533Z,5.82
2023-08-02T02:42:57.410Z,6.32
2023-08-02T02:45:26.235Z,5.80
2023-08-02T02:47:59.124Z,5.45
2023-08-02T02:50:28.577Z,5.28
2023-08-02T02:52:58.861Z,5.93
2023-08-02T02:55:28.489Z,5.63
2023-08-02T02:58:01.216Z,5.63
2023-08-02T03:00:33.962Z,5.28
2023-08-02T03:03:02.470Z,5.72
2023-08-02T03:05:30.848Z,5.38
2023-08-02T03:08:03.076Z,5.13
2023-08-02T03:10:31.522Z,5.10
2023-08-02T03:12:59.773Z,5.63
2023-08-02T03:15:29.121Z,5.40
2023-08-02T03:17:58.438Z,5.15
2023-08-02T03:20:29.415Z,5.13
2023-08-02T03:22:57.823Z,5.28
2023-08-02T03:25:34.124Z,5.57
2023-08-02T03:28:02.579Z,5.25
2023-08-02T03:30:31.305Z,5.70
2023-08-02T03:33:00.091Z,5.20
2023-08-02T03:35:30.575Z,5.20
2023-08-02T03:38:00.062Z,4.80
2023-08-02T03:40:33.527Z,5.00
2023-08-02T03:43:02.142Z,4.85
2023-08-02T03:45:30.728Z,4.72
2023-08-02T03:48:02.621Z,4.70
2023-08-02T03:50:31.234Z,4.90
2023-08-02T03:53:03.750Z,5.03
2023-08-02T03:55:36.358Z,4.60
2023-08-02T03:58:05.047Z,4.63
2023-08-02T04:00:33.991Z,4.78
2023-08-02T04:03:03.330Z,4.78
2023-08-02T04:05:32.563Z,4.63
2023-08-02T04:08:01.497Z,4.68
2023-08-02T04:10:37.124Z,4.60
2023-08-02T04:13:05.733Z,5.00
2023-08-02T04:15:35.772Z,5.00
2023-08-02T04:18:05.111Z,4.85
2023-08-02T04:20:40.178Z,4.85
2023-08-02T04:23:14.051Z,4.90
2023-08-02T04:25:46.398Z,4.90
2023-08-02T04:28:17.272Z,4.65
2023-08-02T04:30:51.547Z,4.43
2023-08-02T04:33:20.257Z,4.90
2023-08-02T04:35:49.073Z,4.90
2023-08-02T04:38:19.458Z,4.68
2023-08-02T04:40:55.220Z,4.65
2023-08-02T04:43:23.863Z,4.40
2023-08-02T04:45:54.581Z,4.97
2023-08-02T04:48:22.900Z,4.80
2023-08-02T04:50:51.880Z,4.95
2023-08-02T04:53:23.244Z,4.47
2023-08-02T04:55:55.705Z,4.75
2023-08-02T05:00:53.877Z,5.10
2023-08-02T05:03:28.300Z,5.15
2023-08-02T05:06:00.344Z,5.70
2023-08-02T05:08:40.325Z,5.68
2023-08-02T05:11:12.823Z,5.93
2023-08-02T05:13:42.195Z,5.78
2023-08-02T05:16:17.086Z,5.85
2023-08-02T05:18:46.016Z,5.55
2023-08-02T05:21:15.224Z,6.78
2023-08-02T05:23:54.748Z,6.43
2023-08-02T05:26:25.459Z,6.25
2023-08-02T05:29:00.301Z,6.70
2023-08-02T05:31:37.995Z,6.80
2023-08-02T05:34:09.549Z,6.75
2023-08-02T05:36:38.135Z,7.22
2023-08-02T05:39:08.523Z,7.90
2023-08-02T05:41:42.993Z,7.70
2023-08-02T05:46:39.792Z,6.75
2023-08-02T05:49:14.531Z,6.88
2023-08-02T05:51:44.422Z,6.45
2023-08-02T05:54:13.190Z,6.78
2023-08-02T05:56:43.205Z,6.47
2023-08-02T05:59:11.993Z,6.75
2023-08-02T06:01:44.169Z,6.68
2023-08-02T06:04:13.077Z,7.13
2023-08-02T06:06:41.636Z,6.10
2023-08-02T06:09:15.076Z,6.35
2023-08-02T06:11:44.929Z,6.25
2023-08-02T06:14:14.413Z,6.50
2023-08-02T06:16:42.949Z,5.75
2023-08-02T06:19:14.089Z,6.07
2023-08-02T06:21:42.625Z,6.18
2023-08-02T06:24:12.521Z,5.80
2023-08-02T06:26:45.028Z,5.03
2023-08-02T06:29:19.091Z,5.25
2023-08-02T06:31:48.360Z,5.40
2023-08-02T06:34:18.679Z,5.13
2023-08-02T06:36:47.498Z,5.50
2023-08-02T06:39:16.144Z,5.10
2023-08-02T06:41:45.520Z,5.35
2023-08-02T06:44:14.823Z,4.40
2023-08-02T06:46:45.377Z,4.85
2023-08-02T06:49:16.657Z,4.50
2023-08-02T06:51:46.289Z,4.57
2023-08-02T06:54:14.995Z,4.30
2023-08-02T06:56:46.055Z,4.43
2023-08-02T06:59:16.969Z,4.50
2023-08-02T07:01:50.192Z,4.43
2023-08-02T07:04:19.983Z,4.47
2023-08-02T07:06:53.011Z,4.40
2023-08-02T07:09:21.236Z,4.00
2023-08-02T07:11:52.784Z,4.25
2023-08-02T07:14:23.123Z,3.70
2023-08-02T07:16:53.435Z,4.10
2023-08-02T07:19:22.171Z,4.18
2023-08-02T07:21:51.932Z,4.00
2023-08-02T07:24:20.299Z,3.70
2023-08-02T07:26:48.839Z,3.63
2023-08-02T07:29:17.349Z,3.28
2023-08-02T07:31:45.923Z,3.35
2023-08-02T07:34:16.022Z,3.45
2023-08-02T07:36:46.984Z,3.05
2023-08-02T07:39:17.717Z,3.20
2023-08-02T07:41:46.224Z,3.33
2023-08-02T07:44:19.733Z,3.45
2023-08-02T07:46:49.238Z,3.10
2023-08-02T07:49:19.156Z,2.70
2023-08-02T07:51:50.400Z,2.50
2023-08-02T07:54:19.073Z,2.65
2023-08-02T07:56:52.901Z,2.80
2023-08-02T07:59:24.222Z,2.50
2023-08-02T08:01:55.446Z,2.63
2023-08-02T08:04:32.821Z,2.67
2023-08-02T08:07:01.516Z,2.60
2023-08-02T08:09:31.728Z,2.20
2023-08-02T08:12:01.578Z,2.58
2023-08-02T08:14:33.638Z,2.20
2023-08-02T08:17:07.640Z,2.50
2023-08-02T08:19:38.980Z,2.47
2023-08-02T08:22:07.441Z,2.55
2023-08-02T08:24:37.326Z,2.60
2023-08-02T08:27:08.792Z,2.65
2023-08-02T08:29:37.287Z,2.50
2023-08-02T08:32:09.171Z,2.42
2023-08-02T08:34:40.055Z,2.05
2023-08-02T08:37:08.537Z,2.27
2023-08-02T08:39:41.334Z,2.25
2023-08-02T08:42:13.631Z,2.40
2023-08-02T08:44:45.964Z,2.20
2023-08-02T08:47:20.113Z,1.90
2023-08-02T08:49:50.260Z,2.05
2023-08-02T08:52:21.991Z,2.10
2023-08-02T08:54:52.367Z,2.25
2023-08-02T08:57:23.425Z,1.90
2023-08-02T08:59:52.305Z,2.20
2023-08-02T09:02:22.023Z,2.30
2023-08-02T09:04:55.899Z,2.08
2023-08-02T09:07:27.238Z,2.20
2023-08-02T09:09:55.907Z,1.92
2023-08-02T09:12:33.185Z,2.22
2023-08-02T09:15:04.205Z,2.10
2023-08-02T09:17:49.752Z,2.10
2023-08-02T09:20:25.672Z,1.90
2023-08-02T09:22:56.003Z,2.13
2023-08-02T09:25:27.321Z,1.98
2023-08-02T09:27:56.963Z,1.98
2023-08-02T09:30:30.623Z,1.95
2023-08-02T09:33:03.572Z,2.00
2023-08-02T09:35:38.792Z,1.90
2023-08-02T09:38:13.723Z,2.00
2023-08-02T09:41:22.711Z,2.10
2023-08-02T09:43:36.744Z,1.92
2023-08-02T09:46:23.604Z,1.80
2023-08-02T09:48:56.002Z,1.90
2023-08-02T09:51:44.367Z,1.90
2023-08-02T09:54:16.197Z,1.95
2023-08-02T09:59:24.012Z,2.10
2023-08-02T10:01:58.246Z,2.08
2023-08-02T10:04:31.383Z,1.88
2023-08-02T10:07:06.996Z,2.22
2023-08-02T10:09:37.732Z,1.95
2023-08-02T10:12:10.745Z,1.90
2023-08-02T10:14:39.892Z,1.90
2023-08-02T10:17:09.954Z,2.20
2023-08-02T10:19:41.730Z,2.05
2023-08-02T10:22:15.331Z,2.00
2023-08-02T10:24:45.834Z,1.80
2023-08-02T10:27:16.085Z,1.83
2023-08-02T10:29:44.816Z,2.10
2023-08-02T10:32:17.056Z,2.17
2023-08-02T10:34:47.906Z,2.00
2023-08-02T10:37:19.586Z,1.90
2023-08-02T10:39:59.882Z,1.92
2023-08-02T10:42:31.543Z,2.00
2023-08-02T10:45:21.158Z,1.85
2023-08-02T10:47:51.570Z,2.00
2023-08-02T10:50:48.018Z,2.65
2023-08-02T10:53:18.568Z,2.15
2023-08-02T10:56:07.369Z,2.10
2023-08-02T10:58:49.672Z,2.00
2023-08-02T11:01:18.181Z,1.88
2023-08-02T11:03:47.947Z,1.88
2023-08-02T11:06:28.097Z,1.85
2023-08-02T11:08:57.967Z,1.98
2023-08-02T11:11:33.121Z,1.95
2023-08-02T11:14:01.690Z,2.10
2023-08-02T11:19:10.621Z,1.90
2023-08-02T11:21:39.222Z,2.00
2023-08-02T11:24:09.752Z,1.83
2023-08-02T11:29:10.988Z,1.90
2023-08-02T11:31:47.002Z,2.08
2023-08-02T11:34:20.378Z,2.00
2023-08-02T11:36:52.519Z,2.08
2023-08-02T11:39:23.786Z,1.98
2023-08-02T11:42:04.156Z,2.10
2023-08-02T11:44:34.456Z,2.00
2023-08-02T11:47:04.366Z,2.08
2023-08-02T11:49:34.023Z,2.20
2023-08-02T11:52:04.435Z,2.00
2023-08-02T11:54:36.070Z,2.22
2023-08-02T11:57:05.523Z,1.90
2023-08-02T11:59:34.411Z,2.00
2023-08-02T12:02:03.697Z,1.98
2023-08-02T12:04:40.315Z,1.90
2023-08-02T12:07:08.944Z,2.17
2023-08-02T12:09:49.959Z,2.03
2023-08-02T12:12:19.109Z,1.85
2023-08-02T12:14:48.747Z,1.90
2023-08-02T12:17:21.818Z,1.90
2023-08-02T12:19:52.018Z,1.98
2023-08-02T12:22:21.644Z,1.90
2023-08-02T12:27:44.512Z,1.88
2023-08-02T12:30:18.909Z,2.17
2023-08-02T12:32:47.663Z,1.88
2023-08-02T12:35:16.882Z,2.10
2023-08-02T12:37:48.461Z,1.80
2023-08-02T12:40:22.122Z,1.80
2023-08-02T12:43:01.600Z,1.80
2023-08-02T12:45:33.975Z,2.00
2023-08-02T12:48:02.443Z,1.73
2023-08-02T12:50:32.977Z,1.75
2023-08-02T12:53:01.600Z,1.65
2023-08-02T12:55:29.909Z,1.90
2023-08-02T12:58:02.428Z,1.90
2023-08-02T13:00:31.229Z,1.88
2023-08-02T13:02:59.730Z,2.00
2023-08-02T13:05:29.161Z,1.88
2023-08-02T13:07:59.622Z,2.00
2023-08-02T13:10:29.337Z,1.90
2023-08-02T13:13:00.326Z,2.47
2023-08-02T13:15:30.427Z,1.92
2023-08-02T13:18:00.659Z,1.70
2023-08-02T13:20:29.976Z,1.70
2023-08-02T13:22:58.199Z,1.95
2023-08-02T13:28:01.160Z,1.83
2023-08-02T13:30:31.271Z,1.70
2023-08-02T13:33:00.067Z,1.85
2023-08-02T13:35:29.166Z,1.80
2023-08-02T13:38:00.578Z,1.92
2023-08-02T13:40:29.314Z,1.85
2023-08-02T13:42:59.250Z,1.85
2023-08-02T13:45:32.790Z,1.70
2023-08-02T13:48:03.914Z,2.00
2023-08-02T13:50:34.156Z,1.67
2023-08-02T13:53:03.661Z,1.90
2023-08-02T13:55:32.539Z,1.70
2023-08-02T13:58:02.394Z,1.90
2023-08-02T14:00:34.865Z,2.00
2023-08-02T14:03:04.376Z,1.80
2023-08-02T14:05:33.019Z,1.90
2023-08-02T14:08:02.540Z,1.95
2023-08-02T14:10:31.652Z,1.80
2023-08-02T14:13:00.281Z,1.90
2023-08-02T14:15:33.258Z,2.03
2023-08-02T14:18:05.835Z,2.00
2023-08-02T14:20:35.272Z,1.90
2023-08-02T14:23:03.531Z,1.73
2023-08-02T14:25:34.357Z,1.90
2023-08-02T14:28:03.721Z,1.95
2023-08-02T14:30:33.785Z,2.00
2023-08-02T14:33:03.470Z,2.17
2023-08-02T14:35:31.866Z,1.80
2023-08-02T14:38:01.797Z,2.03
2023-08-02T14:40:32.920Z,2.00
2023-08-02T14:43:02.538Z,1.85
2023-08-02T14:45:31.445Z,1.63
2023-08-02T14:48:06.797Z,1.90
2023-08-02T14:50:38.167Z,1.90
2023-08-02T14:55:39.641Z,1.85
2023-08-02T14:58:09.099Z,1.90
2023-08-02T15:00:37.960Z,2.00
2023-08-02T15:03:08.308Z,1.98
2023-08-02T15:05:39.226Z,1.90
2023-08-02T15:08:09.454Z,2.10
2023-08-02T15:10:42.611Z,1.80
2023-08-02T15:13:11.466Z,1.85
2023-08-02T15:15:40.331Z,1.90
2023-08-02T15:18:10.561Z,2.05
2023-08-02T15:20:39.469Z,2.05
2023-08-02T15:23:08.064Z,1.70
2023-08-02T15:25:37.217Z,1.80
2023-08-02T15:28:06.495Z,1.60
2023-08-02T15:30:35.189Z,1.90
2023-08-02T15:33:05.174Z,2.00
2023-08-02T15:35:38.692Z,1.90
2023-08-02T15:38:22.766Z,1.70
2023-08-02T15:41:05.657Z,1.90
2023-08-02T15:43:34.102Z,1.90
2023-08-02T15:46:05.502Z,1.70
2023-08-02T15:51:06.735Z,1.80
2023-08-02T15:53:34.999Z,1.80
2023-08-02T15:56:04.084Z,2.00
2023-08-02T15:58:33.773Z,1.80
2023-08-02T16:01:03.143Z,1.90
2023-08-02T16:03:31.857Z,1.90
2023-08-02T16:06:00.159Z,1.70
2023-08-02T16:08:31.235Z,1.95
2023-08-02T16:11:01.374Z,2.10
2023-08-02T16:13:30.232Z,2.15
2023-08-02T16:15:58.612Z,2.20
2023-08-02T16:18:26.822Z,2.10
2023-08-02T16:20:57.609Z,2.10
2023-08-02T16:23:29.705Z,2.30
2023-08-02T16:26:00.200Z,2.00
2023-08-02T16:28:28.678Z,2.28
2023-08-02T16:30:58.462Z,2.53
2023-08-02T16:33:28.065Z,2.40
2023-08-02T16:36:00.235Z,2.50
2023-08-02T16:38:30.308Z,2.47
2023-08-02T16:41:00.280Z,2.40
2023-08-02T16:43:34.800Z,2.67
2023-08-02T16:48:32.165Z,2.60
2023-08-02T16:51:00.794Z,2.67
2023-08-02T16:53:29.651Z,2.70
2023-08-02T16:55:59.523Z,2.80
2023-08-02T16:58:33.068Z,2.70
2023-08-02T17:01:06.576Z,2.47
2023-08-02T17:03:40.485Z,2.60
2023-08-02T17:06:10.390Z,2.45
2023-08-02T17:08:39.374Z,2.85
2023-08-02T17:11:10.658Z,2.70
2023-08-02T17:13:39.378Z,2.60
2023-08-02T17:16:09.148Z,2.30
2023-08-02T17:18:41.068Z,2.28
2023-08-02T17:21:10.602Z,2.25
2023-08-02T17:23:40.906Z,2.30
2023-08-02T17:26:10.789Z,2.47
2023-08-02T17:28:39.273Z,2.00
2023-08-02T17:31:12.209Z,1.90
2023-08-02T17:33:45.288Z,2.00
2023-08-02T17:38:56.786Z,2.00
2023-08-02T17:46:29.222Z,2.10
2023-08-02T17:49:03.512Z,2.05
2023-08-02T17:51:39.112Z,2.00
2023-08-02T17:54:09.712Z,2.15
2023-08-02T17:56:39.939Z,2.00
2023-08-02T17:59:13.929Z,1.88
2023-08-02T18:01:49.236Z,2.10
2023-08-02T18:04:24.268Z,1.80
2023-08-02T18:06:53.583Z,2.10
2023-08-02T18:09:24.145Z,2.65
2023-08-02T18:11:55.311Z,2.30
2023-08-02T18:14:27.941Z,1.90
2023-08-02T18:16:58.000Z,1.83
2023-08-02T18:19:27.183Z,1.90
2023-08-02T18:21:59.501Z,2.00
2023-08-02T18:24:38.248Z,1.80
2023-08-02T18:27:13.132Z,1.80
2023-08-02T18:29:42.235Z,2.00
2023-08-02T18:32:16.021Z,2.00
2023-08-02T18:34:47.556Z,1.95
2023-08-02T18:37:15.962Z,1.88
2023-08-02T18:39:44.739Z,2.00
2023-08-02T18:42:17.266Z,2.20
2023-08-02T18:44:46.719Z,2.05
2023-08-02T18:47:16.042Z,2.25
2023-08-02T18:49:45.572Z,2.10
2023-08-02T18:52:15.840Z,2.20
2023-08-02T18:54:44.963Z,2.28
2023-08-02T18:57:15.143Z,2.25
2023-08-02T18:59:48.799Z,2.65
2023-08-02T19:02:17.552Z,2.30
2023-08-02T19:04:46.249Z,2.85
2023-08-02T19:07:15.820Z,2.63
2023-08-02T19:09:45.752Z,2.65
2023-08-02T19:12:21.942Z,2.50
2023-08-02T19:14:50.627Z,2.53
2023-08-02T19:17:20.818Z,2.45
2023-08-02T19:19:50.789Z,2.60
2023-08-02T19:22:24.660Z,2.40
2023-08-02T19:24:55.749Z,2.53
2023-08-02T19:27:28.973Z,2.40
2023-08-02T19:30:03.774Z,2.40
2023-08-02T19:32:35.900Z,2.40
2023-08-02T19:35:11.530Z,2.50
2023-08-02T19:37:40.985Z,2.50
2023-08-02T19:40:16.508Z,2.50
2023-08-02T19:42:49.380Z,2.40
2023-08-02T19:45:22.144Z,2.60
2023-08-02T19:47:54.229Z,2.60
2023-08-02T19:50:24.898Z,2.70
2023-08-02T19:52:54.599Z,2.67
2023-08-02T19:55:24.632Z,2.78
2023-08-02T19:57:55.199Z,2.90
2023-08-02T20:00:28.163Z,2.90
2023-08-02T20:02:57.748Z,2.65
2023-08-02T20:05:57.481Z,2.72
2023-08-02T20:08:33.430Z,2.80
2023-08-02T20:11:04.522Z,2.60
2023-08-02T20:13:37.452Z,2.65
2023-08-02T20:16:10.290Z,2.75
2023-08-02T20:18:39.497Z,2.65
2023-08-02T20:21:21.223Z,2.50
2023-08-02T20:23:52.586Z,2.70
2023-08-02T20:26:21.204Z,2.55
2023-08-02T20:28:54.284Z,2.50
2023-08-02T20:31:26.493Z,2.63
2023-08-02T20:34:01.505Z,2.50
2023-08-02T20:36:30.129Z,2.53
2023-08-02T20:38:58.272Z,2.40
2023-08-02T20:41:30.640Z,2.50
2023-08-02T20:44:00.260Z,2.53
2023-08-02T20:46:31.778Z,2.45
2023-08-02T20:49:06.179Z,2.50
2023-08-02T20:51:35.841Z,2.40
2023-08-02T20:54:05.674Z,2.50
2023-08-02T20:56:34.184Z,2.50
2023-08-02T20:59:11.125Z,2.20
2023-08-02T21:01:39.995Z,2.40
2023-08-02T21:04:11.280Z,2.42
2023-08-02T21:06:39.586Z,2.72
2023-08-02T21:09:08.091Z,2.50
2023-08-02T21:11:41.866Z,2.40
2023-08-02T21:14:11.841Z,2.28
2023-08-02T21:16:45.726Z,2.50
2023-08-02T21:19:15.205Z,2.38
2023-08-02T21:21:43.759Z,2.28
2023-08-02T21:24:14.210Z,2.40
2023-08-02T21:26:44.130Z,2.45
2023-08-02T21:29:17.992Z,2.50
2023-08-02T21:31:52.703Z,2.50
2023-08-02T21:34:22.174Z,2.35
2023-08-02T21:36:51.285Z,2.60
2023-08-02T21:39:21.938Z,2.47
2023-08-02T21:41:54.545Z,2.70
2023-08-02T21:44:31.179Z,2.40
2023-08-02T21:47:01.375Z,2.45
2023-08-02T21:49:29.676Z,2.58
2023-08-02T21:52:00.474Z,2.55
2023-08-02T21:54:31.908Z,2.27
2023-08-02T21:57:02.414Z,2.50
2023-08-02T21:59:36.089Z,2.75
2023-08-02T22:02:05.974Z,2.63
2023-08-02T22:04:37.267Z,2.58
2023-08-02T22:07:06.987Z,2.17
2023-08-02T22:09:35.321Z,2.38
2023-08-02T22:12:04.230Z,2.50
2023-08-02T22:14:34.404Z,2.53
2023-08-02T22:17:06.186Z,2.35
2023-08-02T22:22:06.360Z,2.60
2023-08-02T22:24:38.063Z,2.70
2023-08-02T22:27:09.610Z,2.38
2023-08-02T22:29:53.766Z,2.50
2023-08-02T22:32:30.261Z,2.60
2023-08-02T22:34:58.962Z,2.58
2023-08-02T22:37:37.542Z,2.45
2023-08-02T22:40:08.246Z,2.60
2023-08-02T22:42:38.714Z,2.60
2023-08-02T22:45:18.126Z,2.53
2023-08-02T22:47:50.476Z,2.80
2023-08-02T22:52:55.536Z,2.80
2023-08-02T22:55:24.085Z,2.80
2023-08-02T22:57:53.205Z,2.80
2023-08-02T23:00:25.795Z,2.70
2023-08-02T23:05:49.090Z,2.20
2023-08-02T23:08:22.796Z,2.40
2023-08-02T23:10:51.504Z,2.63
2023-08-02T23:13:24.636Z,2.60
2023-08-02T23:15:55.959Z,2.55
2023-08-02T23:18:25.812Z,2.60
2023-08-02T23:21:01.161Z,2.40
2023-08-02T23:23:34.222Z,2.65
2023-08-02T23:26:09.232Z,2.58
2023-08-02T23:28:41.822Z,2.80
2023-08-02T23:31:16.665Z,2.50
2023-08-02T23:33:45.307Z,2.60
2023-08-02T23:36:13.942Z,2.50
2023-08-02T23:38:43.171Z,2.42
2023-08-02T23:41:13.837Z,2.40
2023-08-02T23:43:44.625Z,2.42
2023-08-02T23:46:18.601Z,2.53
2023-08-02T23:48:48.539Z,2.30
2023-08-02T23:51:17.742Z,2.50
2023-08-02T23:53:46.243Z,2.50
2023-08-02T23:56:20.724Z,2.63
